Time;durP1;ratioP1;P1;durP2;ratioP2;P2;SDS_P1;SDS_P2;PMS_P1;PMS_P2;Temp;Humidity;BMP_temperature;BMP_pressure;BME280_temperature;BME280_humidity;BME280_pressure;Samples;Min_cycle;Max_cycle;Signal;HPM_P1;HPM_P2
2023/03/07 00:00:36;;;;;;;23.13;11.15;;;5.30;99.90;;;;;;5062740;28;20039;-86
2023/03/07 00:03:01;;;;;;;20.10;10.57;;;3.80;99.90;;;;;;5047835;28;20040;-86
2023/03/07 00:05:27;;;;;;;21.00;10.98;;;3.80;99.90;;;;;;5032771;28;20030;-86
2023/03/07 00:07:53;;;;;;;21.60;10.90;;;3.60;99.90;;;;;;5031693;28;20383;-86
2023/03/07 00:10:19;;;;;;;20.65;10.77;;;3.70;99.90;;;;;;5048041;28;20040;-84
2023/03/07 00:12:44;;;;;;;19.13;9.50;;;4.80;99.90;;;;;;5030268;28;20043;-87
2023/03/07 00:15:10;;;;;;;20.63;9.63;;;4.50;99.90;;;;;;5065851;28;20044;-86
2023/03/07 00:17:37;;;;;;;16.98;8.68;;;3.80;99.90;;;;;;5064249;28;20402;-86
2023/03/07 00:20:06;;;;;;;18.70;8.73;;;3.80;99.90;;;;;;5063879;28;20127;-86
2023/03/07 00:22:32;;;;;;;17.65;8.80;;;3.80;99.90;;;;;;5063846;28;20567;-86
2023/03/07 00:24:58;;;;;;;15.68;7.40;;;4.70;99.90;;;;;;5064418;28;20044;-87
2023/03/07 00:27:24;;;;;;;17.20;7.75;;;4.70;99.90;;;;;;5064945;28;20056;-86
2023/03/07 00:29:50;;;;;;;15.10;7.13;;;5.30;99.90;;;;;;5059243;28;20263;-85
2023/03/07 00:32:16;;;;;;;15.07;6.13;;;5.40;99.90;;;;;;5043754;28;20127;-84
2023/03/07 00:34:42;;;;;;;13.10;5.80;;;4.30;99.90;;;;;;5064883;28;20489;-87
2023/03/07 00:37:07;;;;;;;17.17;5.82;;;5.40;99.90;;;;;;5064956;28;20047;-86
2023/03/07 00:39:33;;;;;;;17.90;5.82;;;4.30;99.90;;;;;;5047102;28;20128;-87
2023/03/07 00:41:59;;;;;;;12.27;5.03;;;5.20;99.90;;;;;;5058776;28;20046;-85
2023/03/07 00:44:28;;;;;;;12.13;4.60;;;5.30;99.90;;;;;;5029919;28;20070;-87
2023/03/07 00:46:55;;;;;;;15.35;4.47;;;4.30;99.90;;;;;;5063935;28;20033;-85
2023/03/07 00:49:21;;;;;;;13.38;4.18;;;4.50;99.90;;;;;;5046286;28;20048;-86
2023/03/07 00:51:47;;;;;;;14.80;3.83;;;3.60;99.90;;;;;;5047009;28;20036;-87
2023/03/07 00:54:13;;;;;;;11.00;3.95;;;3.60;99.90;;;;;;5061253;28;20147;-85
2023/03/07 00:56:39;;;;;;;12.90;3.90;;;4.10;99.90;;;;;;5046533;28;20087;-86
2023/03/07 00:59:05;;;;;;;11.40;3.95;;;5.30;99.90;;;;;;5064929;28;20129;-85
2023/03/07 01:01:31;;;;;;;13.93;4.15;;;;;;;;;;5046850;28;20032;-84
2023/03/07 01:03:56;;;;;;;15.40;3.88;;;3.70;99.90;;;;;;5062869;28;20114;-84
2023/03/07 01:06:25;;;;;;;12.00;3.85;;;4.80;99.90;;;;;;5063863;28;20033;-86
2023/03/07 01:08:51;;;;;;;12.93;3.85;;;3.70;99.90;;;;;;5065030;28;20051;-86
2023/03/07 01:11:17;;;;;;;12.75;4.10;;;3.80;99.90;;;;;;5067176;28;21279;-86
2023/03/07 01:13:43;;;;;;;14.43;3.67;;;5.20;99.90;;;;;;5066901;28;20044;-87
2023/03/07 01:16:12;;;;;;;13.65;3.58;;;3.80;99.90;;;;;;5052092;28;20044;-87
2023/03/07 01:18:38;;;;;;;14.65;3.35;;;3.80;99.90;;;;;;5084308;28;20040;-85
2023/03/07 01:21:22;;;;;;;11.30;3.38;;;3.80;99.90;;;;;;5067526;28;20044;-85
2023/03/07 01:23:49;;;;;;;11.38;3.22;;;;;;;;;;5064376;28;20113;-85
2023/03/07 01:26:20;;;;;;;12.30;2.40;;;3.90;99.90;;;;;;5066953;28;20037;-86
2023/03/07 01:28:48;;;;;;;14.02;3.00;;;5.50;99.90;;;;;;5065664;28;20044;-87
2023/03/07 01:31:14;;;;;;;16.02;3.05;;;3.90;99.90;;;;;;5066970;28;20198;-86
2023/03/07 01:33:40;;;;;;;14.15;2.88;;;3.90;99.90;;;;;;5067426;28;20542;-86
2023/03/07 01:36:16;;;;;;;10.02;2.50;;;3.80;99.90;;;;;;5049931;28;20556;-85
2023/03/07 01:38:41;;;;;;;13.43;2.40;;;3.90;99.90;;;;;;5066880;28;20044;-85
2023/03/07 01:41:08;;;;;;;11.93;2.40;;;3.80;99.90;;;;;;5067446;28;20043;-85
2023/03/07 01:43:34;;;;;;;12.73;2.30;;;5.60;99.90;;;;;;5067152;28;20044;-86
2023/03/07 01:46:31;;;;;;;17.85;2.88;;;4.20;99.90;;;;;;5066266;28;20044;-86
2023/03/07 01:49:10;;;;;;;13.80;2.72;;;3.80;99.90;;;;;;5083648;28;20049;-86
2023/03/07 01:51:39;;;;;;;11.43;2.20;;;5.60;99.90;;;;;;5065385;28;20052;-85
2023/03/07 01:54:07;;;;;;;12.68;2.28;;;3.90;99.90;;;;;;5067009;28;20040;-86
2023/03/07 01:56:35;;;;;;;15.65;2.20;;;3.80;99.90;;;;;;5065789;28;20036;-86
2023/03/07 01:59:01;;;;;;;13.68;2.25;;;3.80;99.90;;;;;;5065776;28;20083;-87
2023/03/07 02:01:27;;;;;;;11.50;2.35;;;4.50;99.90;;;;;;5064684;28;20072;-88
2023/03/07 02:04:41;;;;;;;16.80;2.45;;;3.70;99.90;;;;;;5047856;28;20025;-86
2023/03/07 02:07:09;;;;;;;13.95;2.22;;;3.70;99.90;;;;;;5065065;28;20071;-86
2023/03/07 02:09:35;;;;;;;14.48;2.13;;;5.20;99.90;;;;;;5065888;28;20036;-85
2023/03/07 02:12:02;;;;;;;15.38;2.40;;;4.70;99.90;;;;;;5066998;28;20560;-87
2023/03/07 02:14:28;;;;;;;10.40;2.08;;;3.40;99.90;;;;;;5064303;28;20413;-88
2023/03/07 02:16:53;;;;;;;12.63;2.40;;;5.10;99.90;;;;;;5066942;28;20032;-87
2023/03/07 02:19:31;;;;;;;15.05;2.58;;;3.40;99.90;;;;;;5066082;28;20421;-86
2023/03/07 02:22:18;;;;;;;12.55;2.20;;;3.40;99.90;;;;;;5060538;28;20048;-85
2023/03/07 02:25:20;;;;;;;12.43;2.22;;;3.40;99.90;;;;;;5045633;28;20178;-85
2023/03/07 02:27:49;;;;;;;19.23;2.40;;;3.40;99.90;;;;;;5056709;28;20501;-85
2023/03/07 02:30:15;;;;;;;11.77;2.15;;;3.40;99.90;;;;;;5066980;28;20086;-85
2023/03/07 02:32:40;;;;;;;11.00;1.85;;;3.40;99.90;;;;;;5067600;28;20517;-86
2023/03/07 02:35:17;;;;;;;12.70;2.22;;;3.40;99.90;;;;;;5061133;28;20105;-86
2023/03/07 02:37:46;;;;;;;14.07;2.30;;;3.40;99.90;;;;;;5065295;28;20055;-85
2023/03/07 02:40:15;;;;;;;10.88;1.90;;;3.40;99.90;;;;;;5065124;28;20498;-88
2023/03/07 02:42:42;;;;;;;13.43;2.10;;;3.40;99.90;;;;;;5066257;28;20040;-86
2023/03/07 02:45:12;;;;;;;12.27;2.20;;;3.30;99.90;;;;;;5067121;28;20451;-85
2023/03/07 02:47:38;;;;;;;16.52;2.10;;;0.60;99.90;;;;;;5081375;28;20048;-86
2023/03/07 02:50:04;;;;;;;11.85;2.00;;;3.20;99.90;;;;;;5066923;28;20381;-86
2023/03/07 02:52:30;;;;;;;10.75;2.55;;;3.30;99.90;;;;;;5049857;28;20087;-86
2023/03/07 02:54:57;;;;;;;13.40;2.28;;;3.20;99.90;;;;;;5067926;28;20080;-85
2023/03/07 02:57:23;;;;;;;12.77;2.33;;;3.80;99.90;;;;;;5061957;28;20044;-86
2023/03/07 02:59:49;;;;;;;12.25;2.22;;;3.20;99.90;;;;;;5032766;28;20110;-86
2023/03/07 03:02:15;;;;;;;13.80;2.22;;;3.10;99.90;;;;;;5064875;28;20033;-86
2023/03/07 03:04:40;;;;;;;14.13;2.50;;;3.00;99.90;;;;;;5065403;28;20028;-86
2023/03/07 03:07:06;;;;;;;15.63;2.70;;;;;;;;;;5065553;28;20074;-85
2023/03/07 03:09:32;;;;;;;13.25;2.50;;;3.00;99.90;;;;;;5064025;28;20060;-86
2023/03/07 03:11:58;;;;;;;15.60;2.63;;;4.40;99.90;;;;;;5065540;28;20382;-86
2023/03/07 03:14:24;;;;;;;9.90;2.20;;;;;;;;;;5066033;28;20481;-87
2023/03/07 03:16:53;;;;;;;9.63;2.08;;;3.00;99.90;;;;;;5066930;28;20561;-86
2023/03/07 03:19:19;;;;;;;12.52;2.25;;;3.00;99.90;;;;;;5064822;28;20086;-86
2023/03/07 03:21:45;;;;;;;15.85;2.10;;;3.00;99.90;;;;;;5067261;28;20523;-85
2023/03/07 03:24:11;;;;;;;15.98;2.35;;;3.00;99.90;;;;;;5067060;28;20417;-87
2023/03/07 03:26:37;;;;;;;14.52;2.03;;;3.10;99.90;;;;;;5048819;28;20233;-86
2023/03/07 03:29:04;;;;;;;9.68;2.08;;;3.10;99.90;;;;;;5065941;28;20051;-86
2023/03/07 03:31:31;;;;;;;12.10;2.20;;;3.80;99.90;;;;;;5043577;28;20048;-87
2023/03/07 03:33:57;;;;;;;12.70;2.38;;;3.10;99.90;;;;;;5065287;28;20048;-86
2023/03/07 03:36:24;;;;;;;14.50;2.40;;;3.00;99.90;;;;;;5066323;28;20040;-86
2023/03/07 03:38:56;;;;;;;12.70;2.00;;;3.00;99.90;;;;;;5066297;28;20044;-86
2023/03/07 03:41:23;;;;;;;10.48;1.77;;;3.00;99.90;;;;;;5062179;28;20032;-84
2023/03/07 03:43:49;;;;;;;10.23;1.90;;;3.00;99.90;;;;;;5046967;28;20098;-86
2023/03/07 03:46:16;;;;;;;11.30;1.90;;;4.50;99.90;;;;;;5064294;28;20400;-86
2023/03/07 03:48:42;;;;;;;11.77;2.25;;;2.90;99.90;;;;;;5048291;28;20039;-86
2023/03/07 03:51:10;;;;;;;11.18;2.40;;;2.90;99.90;;;;;;5047027;28;20045;-86
2023/03/07 03:53:38;;;;;;;13.90;2.38;;;2.90;99.90;;;;;;5065294;28;20251;-88
2023/03/07 03:56:13;;;;;;;8.15;1.98;;;3.30;99.90;;;;;;5064834;28;20044;-87
2023/03/07 03:58:39;;;;;;;14.43;2.42;;;4.50;99.90;;;;;;5065507;28;20055;-87
2023/03/07 04:01:10;;;;;;;10.82;2.17;;;4.60;99.90;;;;;;5064658;28;20123;-86
2023/03/07 04:03:44;;;;;;;12.00;1.67;;;2.90;99.90;;;;;;5064336;28;20068;-85
2023/03/07 04:06:13;;;;;;;14.35;2.88;;;2.90;99.90;;;;;;5064592;28;20040;-86
2023/03/07 04:08:39;;;;;;;13.52;2.17;;;2.90;99.90;;;;;;5063235;28;20497;-84
2023/03/07 04:11:05;;;;;;;12.07;2.25;;;;;;;;;;5064043;28;20047;-86
2023/03/07 04:13:32;;;;;;;12.50;2.03;;;2.90;99.90;;;;;;5063834;28;20406;-87
2023/03/07 04:15:57;;;;;;;11.57;2.08;;;2.80;99.90;;;;;;5045146;28;20048;-87
2023/03/07 04:18:24;;;;;;;10.82;2.15;;;4.10;99.90;;;;;;5062960;28;20037;-86
2023/03/07 04:20:51;;;;;;;11.63;2.28;;;2.80;99.90;;;;;;5064850;28;20032;-87
2023/03/07 04:23:18;;;;;;;12.05;2.00;;;3.60;99.90;;;;;;5046740;28;20037;-86
2023/03/07 04:25:55;;;;;;;12.10;1.90;;;2.70;99.90;;;;;;5064019;28;20043;-87
2023/03/07 04:28:22;;;;;;;11.48;2.10;;;3.60;99.90;;;;;;5061386;28;20044;-87
2023/03/07 04:30:48;;;;;;;14.70;2.00;;;3.80;99.90;;;;;;5048654;28;20064;-85
2023/03/07 04:33:15;;;;;;;11.48;2.00;;;3.90;99.90;;;;;;5046402;28;20040;-85
2023/03/07 04:35:42;;;;;;;10.70;1.83;;;;;;;;;;5063764;28;20093;-85
2023/03/07 04:38:08;;;;;;;10.43;1.80;;;2.90;99.90;;;;;;5064745;28;20044;-87
2023/03/07 04:40:34;;;;;;;13.23;2.40;;;3.50;99.90;;;;;;5031274;28;20463;-87
2023/03/07 04:43:02;;;;;;;10.55;2.50;;;4.50;99.90;;;;;;5062485;28;20090;-86
2023/03/07 04:45:29;;;;;;;14.00;2.08;;;2.70;99.90;;;;;;5063550;28;20120;-86
2023/03/07 04:47:54;;;;;;;11.63;2.50;;;2.90;99.90;;;;;;5047169;28;20051;-85
2023/03/07 04:50:20;;;;;;;10.45;1.92;;;2.90;99.90;;;;;;5031560;28;20040;-86
2023/03/07 04:52:46;;;;;;;9.63;1.92;;;;;;;;;;5062718;28;20614;-87
2023/03/07 04:55:12;;;;;;;9.63;1.92;;;2.90;99.90;;;;;;5064014;28;20477;-86
2023/03/07 04:57:38;;;;;;;9.93;1.70;;;3.90;99.90;;;;;;5047022;28;20036;-86
2023/03/07 05:00:08;;;;;;;14.25;2.22;;;2.80;99.90;;;;;;5064436;28;20536;-86
2023/03/07 05:02:37;;;;;;;12.07;2.53;;;2.90;99.90;;;;;;5047567;28;20158;-87
2023/03/07 05:05:04;;;;;;;8.57;1.70;;;2.90;99.90;;;;;;5046911;28;20208;-88
2023/03/07 05:07:30;;;;;;;10.05;1.77;;;2.90;99.90;;;;;;5047437;28;20036;-87
2023/03/07 05:09:56;;;;;;;9.00;2.05;;;4.00;99.90;;;;;;5061537;28;20045;-87
2023/03/07 05:12:22;;;;;;;13.38;2.30;;;4.30;99.90;;;;;;5063507;28;20051;-86
2023/03/07 05:14:48;;;;;;;13.10;2.10;;;3.90;99.90;;;;;;5062384;28;20033;-85
2023/03/07 05:17:14;;;;;;;8.75;1.95;;;3.00;99.90;;;;;;5046108;28;20043;-86
2023/03/07 05:19:40;;;;;;;10.68;2.10;;;3.10;99.90;;;;;;5064930;28;20186;-86
2023/03/07 05:22:06;;;;;;;10.15;2.90;;;3.20;99.90;;;;;;5064605;28;20541;-88
2023/03/07 05:24:32;;;;;;;9.95;1.70;;;3.20;99.90;;;;;;5062965;28;20512;-85
2023/03/07 05:26:58;;;;;;;11.45;2.30;;;3.90;99.90;;;;;;5044278;28;20093;-87
2023/03/07 05:29:24;;;;;;;14.55;2.10;;;4.50;99.90;;;;;;5042696;28;20467;-86
2023/03/07 05:31:50;;;;;;;11.93;1.95;;;3.70;99.90;;;;;;5058804;28;20049;-87
2023/03/07 05:34:16;;;;;;;8.27;2.17;;;3.10;99.90;;;;;;5078366;28;20040;-85
2023/03/07 05:36:42;;;;;;;11.95;2.53;;;3.80;99.90;;;;;;5060474;28;20374;-86
2023/03/07 05:39:09;;;;;;;14.68;2.20;;;4.70;99.90;;;;;;5047114;28;20402;-85
2023/03/07 05:41:35;;;;;;;8.68;1.80;;;5.00;99.90;;;;;;5060886;28;20129;-86
2023/03/07 05:44:02;;;;;;;15.45;2.60;;;4.80;99.90;;;;;;5061756;28;20205;-87
2023/03/07 05:46:28;;;;;;;9.60;1.75;;;4.80;99.90;;;;;;5061464;28;20045;-87
2023/03/07 05:48:54;;;;;;;6.88;1.98;;;4.90;99.90;;;;;;5078798;28;20041;-86
2023/03/07 05:51:20;;;;;;;7.43;2.05;;;3.20;99.90;;;;;;5060710;28;20061;-86
2023/03/07 05:53:46;;;;;;;8.35;2.42;;;3.20;99.90;;;;;;5030083;28;20040;-87
2023/03/07 05:56:12;;;;;;;9.43;1.92;;;3.10;99.90;;;;;;5063716;28;20052;-86
2023/03/07 05:58:39;;;;;;;10.55;1.95;;;;;;;;;;5060848;28;20055;-87
2023/03/07 06:01:05;;;;;;;9.18;1.83;;;3.00;99.90;;;;;;5064529;28;20319;-84
2023/03/07 06:03:30;;;;;;;11.57;1.98;;;3.00;99.90;;;;;;5056387;28;20056;-85
2023/03/07 06:05:56;;;;;;;8.38;2.13;;;3.00;99.90;;;;;;5063848;28;20486;-85
2023/03/07 06:08:22;;;;;;;13.52;2.13;;;3.80;99.90;;;;;;5064508;28;20044;-86
2023/03/07 06:10:49;;;;;;;10.45;1.85;;;3.80;99.90;;;;;;5047892;28;20040;-87
2023/03/07 06:13:17;;;;;;;9.77;1.92;;;4.40;99.90;;;;;;5063348;28;20048;-87
2023/03/07 06:15:43;;;;;;;11.27;2.20;;;3.00;99.90;;;;;;5066061;28;20119;-87
2023/03/07 06:18:09;;;;;;;7.90;2.05;;;3.10;99.90;;;;;;5050273;28;20115;-87
2023/03/07 06:20:36;;;;;;;6.30;1.30;;;3.00;99.90;;;;;;5046099;28;20803;-86
2023/03/07 06:23:01;;;;;;;5.32;1.30;;;2.90;99.90;;;;;;5060273;28;20297;-86
2023/03/07 06:25:27;;;;;;;6.32;1.30;;;2.70;99.90;;;;;;5050832;28;20603;-88
2023/03/07 06:27:58;;;;;;;5.70;1.42;;;2.70;99.90;;;;;;5061540;28;20054;-84
2023/03/07 06:30:24;;;;;;;8.90;1.60;;;3.40;99.90;;;;;;5063431;28;20087;-85
2023/03/07 06:32:50;;;;;;;8.75;1.95;;;2.70;99.90;;;;;;5043555;28;20150;-87
2023/03/07 06:35:15;;;;;;;5.65;1.42;;;2.60;99.90;;;;;;5026445;28;20518;-86
2023/03/07 06:37:41;;;;;;;9.73;1.80;;;2.70;99.90;;;;;;5064697;28;20032;-86
2023/03/07 06:40:08;;;;;;;9.13;1.88;;;2.70;99.90;;;;;;5066022;28;20135;-87
2023/03/07 06:42:34;;;;;;;10.65;2.45;;;2.80;99.90;;;;;;5047844;28;20036;-85
2023/03/07 06:45:00;;;;;;;11.75;2.13;;;;;;;;;;5014116;28;20039;-86
2023/03/07 06:47:26;;;;;;;8.23;1.80;;;2.90;99.90;;;;;;5066479;28;20037;-88
2023/03/07 06:49:52;;;;;;;8.30;1.63;;;2.90;99.90;;;;;;5067270;28;20040;-88
2023/03/07 06:52:18;;;;;;;9.07;1.60;;;2.90;99.90;;;;;;5064167;28;20475;-86
2023/03/07 06:54:44;;;;;;;12.50;2.10;;;2.90;99.90;;;;;;5030165;28;20047;-88
2023/03/07 06:57:09;;;;;;;11.00;2.00;;;4.60;99.90;;;;;;5079500;28;20032;-84
2023/03/07 06:59:35;;;;;;;9.60;1.98;;;3.00;99.90;;;;;;5046458;28;20617;-86
2023/03/07 07:02:02;;;;;;;8.73;1.85;;;3.10;99.90;;;;;;5063871;28;20040;-84
2023/03/07 07:04:28;;;;;;;7.63;1.90;;;4.10;99.90;;;;;;5061449;28;20079;-84
2023/03/07 07:06:53;;;;;;;12.68;1.90;;;5.20;99.90;;;;;;5047215;28;20536;-84
2023/03/07 07:09:19;;;;;;;8.10;1.65;;;3.10;99.90;;;;;;5044528;28;20067;-84
2023/03/07 07:11:45;;;;;;;10.23;2.33;;;3.30;99.90;;;;;;5048018;28;20040;-86
2023/03/07 07:14:11;;;;;;;6.85;1.67;;;3.10;99.90;;;;;;5026978;28;20055;-86
2023/03/07 07:16:37;;;;;;;11.52;1.83;;;4.70;99.90;;;;;;5044598;28;20039;-87
2023/03/07 07:19:03;;;;;;;8.32;1.60;;;3.10;99.90;;;;;;5064431;28;20124;-86
2023/03/07 07:21:30;;;;;;;9.27;1.85;;;4.70;99.90;;;;;;5062077;28;20078;-85
2023/03/07 07:23:56;;;;;;;7.60;1.70;;;3.20;99.90;;;;;;5063727;28;20229;-86
2023/03/07 07:26:23;;;;;;;8.68;1.60;;;5.10;99.90;;;;;;5029651;28;20028;-85
2023/03/07 07:28:50;;;;;;;6.78;1.60;;;3.30;99.90;;;;;;5042602;28;20527;-87
2023/03/07 07:31:15;;;;;;;10.18;2.15;;;3.30;99.90;;;;;;5044083;28;20316;-86
2023/03/07 07:33:41;;;;;;;11.82;1.95;;;4.60;99.90;;;;;;5047219;28;20223;-85
2023/03/07 07:36:07;;;;;;;8.85;1.75;;;3.30;99.90;;;;;;5062529;28;20040;-86
2023/03/07 07:38:34;;;;;;;10.40;2.17;;;3.40;99.90;;;;;;5061927;28;20090;-85
2023/03/07 07:41:01;;;;;;;8.68;1.80;;;4.00;99.90;;;;;;5026617;28;20040;-85
2023/03/07 07:43:27;;;;;;;7.80;1.77;;;4.40;99.90;;;;;;5063733;28;20044;-86
2023/03/07 07:45:53;;;;;;;6.55;1.92;;;3.40;99.90;;;;;;5045946;28;20494;-87
2023/03/07 07:48:19;;;;;;;6.03;1.55;;;3.40;99.90;;;;;;5031268;28;20051;-86
2023/03/07 07:50:45;;;;;;;5.03;1.40;;;3.40;99.90;;;;;;5046081;28;20036;-87
2023/03/07 07:53:11;;;;;;;6.32;1.67;;;4.30;99.90;;;;;;5064362;28;20040;-85
2023/03/07 07:55:37;;;;;;;7.90;1.65;;;5.30;99.90;;;;;;5059231;28;20133;-84
2023/03/07 07:58:03;;;;;;;10.98;2.08;;;4.80;99.90;;;;;;5063530;28;20544;-87
2023/03/07 08:00:29;;;;;;;8.27;1.70;;;3.50;99.90;;;;;;5029649;28;20454;-88
2023/03/07 08:02:54;;;;;;;9.23;1.73;;;3.50;99.90;;;;;;5063305;28;20035;-86
2023/03/07 08:05:21;;;;;;;8.02;1.55;;;3.50;99.90;;;;;;5030682;28;20036;-85
2023/03/07 08:07:47;;;;;;;9.55;1.70;;;3.60;99.90;;;;;;5061343;28;20037;-86
2023/03/07 08:10:16;;;;;;;7.05;1.70;;;3.80;99.90;;;;;;5030754;28;20036;-85
2023/03/07 08:12:43;;;;;;;6.95;1.60;;;5.10;99.90;;;;;;5047113;28;20042;-89
2023/03/07 08:15:09;;;;;;;8.70;1.77;;;3.60;99.90;;;;;;5045066;28;20044;-85
2023/03/07 08:17:35;;;;;;;8.05;2.00;;;3.70;99.90;;;;;;5063370;28;20097;-86
2023/03/07 08:20:07;;;;;;;6.80;1.50;;;3.80;99.90;;;;;;5064333;28;20098;-86
2023/03/07 08:22:34;;;;;;;8.03;2.07;;;4.40;99.90;;;;;;5047519;28;21293;-85
2023/03/07 08:25:00;;;;;;;9.10;1.90;;;3.80;99.90;;;;;;5059108;28;20040;-89
2023/03/07 08:27:27;;;;;;;10.15;1.85;;;3.90;99.90;;;;;;5045680;28;20040;-86
2023/03/07 08:29:53;;;;;;;6.88;1.70;;;5.80;99.90;;;;;;5047966;28;20036;-86
2023/03/07 08:32:18;;;;;;;9.55;1.88;;;5.00;99.90;;;;;;5026144;28;20071;-88
2023/03/07 08:34:44;;;;;;;6.80;1.80;;;4.00;99.90;;;;;;5059617;28;20039;-85
2023/03/07 08:37:10;;;;;;;8.52;1.60;;;4.10;99.90;;;;;;5062702;28;20032;-84
2023/03/07 08:39:35;;;;;;;8.75;2.00;;;5.10;99.90;;;;;;5048298;28;20033;-84
2023/03/07 08:42:01;;;;;;;7.47;1.73;;;4.60;99.90;;;;;;5029949;28;20489;-84
2023/03/07 08:44:27;;;;;;;6.35;1.60;;;5.50;99.90;;;;;;5047503;28;20044;-84
2023/03/07 08:46:53;;;;;;;9.30;1.50;;;3.90;99.90;;;;;;5043598;28;20037;-90
2023/03/07 08:49:18;;;;;;;6.72;1.45;;;4.00;99.90;;;;;;5031903;28;20083;-84
2023/03/07 08:51:46;;;;;;;5.28;1.30;;;4.60;99.90;;;;;;5045470;28;20043;-86
2023/03/07 08:54:12;;;;;;;10.23;1.73;;;3.50;99.90;;;;;;5079542;28;20141;-87
2023/03/07 08:56:38;;;;;;;7.95;1.75;;;;;;;;;;5062449;28;20044;-85
2023/03/07 08:59:04;;;;;;;10.27;1.70;;;3.50;99.90;;;;;;5062745;28;20045;-86
2023/03/07 09:01:30;;;;;;;10.32;1.90;;;3.60;99.90;;;;;;5044127;28;20029;-84
2023/03/07 09:03:56;;;;;;;5.68;1.67;;;3.60;99.90;;;;;;5063115;28;20043;-87
2023/03/07 09:06:21;;;;;;;6.97;1.63;;;3.60;99.90;;;;;;5063119;28;20516;-85
2023/03/07 09:08:49;;;;;;;11.70;2.13;;;3.70;99.90;;;;;;5061326;28;20037;-86
2023/03/07 09:11:16;;;;;;;11.00;1.83;;;3.70;99.90;;;;;;5065435;28;20075;-85
2023/03/07 09:13:42;;;;;;;6.25;1.50;;;3.80;99.90;;;;;;5064421;28;20485;-87
2023/03/07 09:16:08;;;;;;;6.95;1.63;;;5.80;99.90;;;;;;5042167;28;20455;-84
2023/03/07 09:18:35;;;;;;;9.60;1.92;;;4.00;99.90;;;;;;5042975;28;20048;-86
2023/03/07 09:21:05;;;;;;;9.52;2.08;;;4.30;99.90;;;;;;5063470;28;20048;-84
2023/03/07 09:23:30;;;;;;;10.23;1.80;;;4.20;99.90;;;;;;5063198;28;20346;-86
2023/03/07 09:26:00;;;;;;;8.43;1.98;;;4.20;99.90;;;;;;5027798;28;20616;-89
2023/03/07 09:28:26;;;;;;;10.55;1.70;;;5.80;99.90;;;;;;5045916;28;21512;-85
2023/03/07 09:30:52;;;;;;;8.15;1.80;;;5.70;99.90;;;;;;5048630;28;20528;-86
2023/03/07 09:33:18;;;;;;;10.27;1.83;;;5.40;99.90;;;;;;5049402;28;20056;-87
2023/03/07 09:35:44;;;;;;;11.85;2.17;;;5.60;99.90;;;;;;5062115;28;20040;-85
2023/03/07 09:38:10;;;;;;;10.00;1.83;;;4.20;99.90;;;;;;5053474;28;20032;-85
2023/03/07 09:40:37;;;;;;;10.00;1.80;;;4.60;99.90;;;;;;5049366;28;20032;-84
2023/03/07 09:43:15;;;;;;;8.40;1.80;;;4.20;99.90;;;;;;5064843;28;20048;-86
2023/03/07 09:46:03;;;;;;;9.95;1.80;;;5.10;99.90;;;;;;5058067;28;20504;-83
2023/03/07 09:48:43;;;;;;;11.75;1.95;;;4.20;99.90;;;;;;5074550;28;20097;-85
2023/03/07 09:51:32;;;;;;;6.97;1.80;;;4.20;99.90;;;;;;5062308;28;20064;-86
2023/03/07 09:54:03;;;;;;;7.45;1.88;;;4.20;99.90;;;;;;5034336;28;20136;-86
2023/03/07 09:56:38;;;;;;;8.25;1.60;;;4.20;99.90;;;;;;5062220;28;20036;-87
2023/03/07 09:59:21;;;;;;;7.32;1.58;;;4.20;99.90;;;;;;5066695;28;20089;-83
2023/03/07 10:01:57;;;;;;;9.32;1.95;;;4.20;99.90;;;;;;5062721;28;20052;-85
2023/03/07 10:04:55;;;;;;;8.38;1.70;;;4.20;99.90;;;;;;5076930;28;20040;-87
2023/03/07 10:07:24;;;;;;;9.77;2.03;;;4.20;99.90;;;;;;5064243;28;20378;-85
2023/03/07 10:09:55;;;;;;;11.05;2.05;;;5.50;99.90;;;;;;5065502;28;20404;-87
2023/03/07 10:12:53;;;;;;;8.35;2.00;;;4.20;99.90;;;;;;5064775;28;20526;-87
2023/03/07 10:15:34;;;;;;;8.27;1.80;;;4.30;99.90;;;;;;5065166;28;20390;-85
2023/03/07 10:18:28;;;;;;;7.28;2.10;;;4.30;99.90;;;;;;5062998;28;20114;-86
2023/03/07 10:21:18;;;;;;;;;;;4.40;99.90;;;;;;5063005;28;20047;-86
2023/03/07 10:24:02;;;;;;;9.50;1.80;;;4.40;99.90;;;;;;5060586;28;19916;-85
2023/03/07 10:26:33;;;;;;;7.43;1.80;;;5.90;99.90;;;;;;5055046;28;20421;-85
2023/03/07 10:29:07;;;;;;;10.15;1.77;;;5.40;99.90;;;;;;5063821;28;20040;-84
2023/03/07 10:31:38;;;;;;;9.43;1.77;;;5.60;99.90;;;;;;5063373;28;20149;-85
2023/03/07 10:34:24;;;;;;;8.57;1.80;;;4.50;99.90;;;;;;5080032;28;20048;-85
2023/03/07 10:36:51;;;;;;;12.60;2.00;;;4.90;99.90;;;;;;5064002;28;20044;-83
2023/03/07 10:39:33;;;;;;;7.65;1.70;;;5.20;99.90;;;;;;5047268;28;20056;-86
2023/03/07 10:41:58;;;;;;;10.70;2.47;;;4.50;99.90;;;;;;5062534;28;20055;-86
2023/03/07 10:44:27;;;;;;;11.05;1.95;;;4.40;99.90;;;;;;5064586;28;20033;-86
2023/03/07 10:46:57;;;;;;;7.82;1.55;;;5.30;99.90;;;;;;5044847;28;20253;-86
2023/03/07 10:49:30;;;;;;;9.70;1.70;;;4.60;99.90;;;;;;5064071;28;20131;-87
2023/03/07 10:52:38;;;;;;;6.78;1.85;;;4.40;99.90;;;;;;5063318;28;20111;-86
2023/03/07 10:55:32;;;;;;;11.45;1.83;;;6.20;99.90;;;;;;5018961;28;20048;-84
2023/03/07 10:58:16;;;;;;;13.50;2.10;;;4.50;99.90;;;;;;4998843;28;20037;-86
2023/03/07 11:00:43;;;;;;;8.07;1.77;;;4.50;99.90;;;;;;5067693;28;20047;-83
2023/03/07 11:03:26;;;;;;;8.55;1.73;;;4.60;99.90;;;;;;5059440;28;20136;-85
2023/03/07 11:05:52;;;;;;;;;;;5.70;99.90;;;;;;5048847;28;20039;-86
2023/03/07 11:08:30;;;;;;;8.02;1.80;;;4.60;99.90;;;;;;5029481;28;19916;-85
2023/03/07 11:10:57;;;;;;;9.63;1.90;;;4.70;99.90;;;;;;5040681;28;20213;-87
2023/03/07 11:13:23;;;;;;;7.82;1.90;;;6.40;99.90;;;;;;5048019;28;20040;-87
2023/03/07 11:15:49;;;;;;;9.18;1.92;;;;;;;;;;5062711;28;20165;-86
2023/03/07 11:18:30;;;;;;;11.40;1.95;;;4.80;99.90;;;;;;5064451;28;20045;-86
2023/03/07 11:20:58;;;;;;;8.93;1.88;;;4.90;99.90;;;;;;5061177;28;20052;-86
2023/03/07 11:23:31;;;;;;;9.35;1.80;;;6.60;99.90;;;;;;5065868;28;20036;-86
2023/03/07 11:26:14;;;;;;;6.60;1.63;;;5.00;99.90;;;;;;5049253;28;20375;-86
2023/03/07 11:28:40;;;;;;;9.43;2.22;;;5.30;99.90;;;;;;5062459;28;20072;-87
2023/03/07 11:31:24;;;;;;;10.63;2.00;;;5.60;99.90;;;;;;5062730;28;20059;-86
2023/03/07 11:34:10;;;;;;;8.82;1.98;;;5.90;99.90;;;;;;5064072;28;20051;-87
2023/03/07 11:36:38;;;;;;;12.43;1.85;;;6.20;99.90;;;;;;5063365;28;20586;-88
2023/03/07 11:39:16;;;;;;;9.80;1.85;;;6.30;99.90;;;;;;5062950;28;20083;-84
2023/03/07 11:41:46;;;;;;;5.93;1.60;;;6.10;99.90;;;;;;5063354;28;20060;-82
2023/03/07 11:44:33;;;;;;;11.50;1.80;;;5.80;99.90;;;;;;5044700;28;20489;-84
2023/03/07 11:47:36;;;;;;;12.30;1.98;;;5.30;99.90;;;;;;5046197;28;21637;-85
2023/03/07 11:50:21;;;;;;;7.80;1.60;;;4.80;99.90;;;;;;5064824;28;20070;-83
2023/03/07 11:53:05;;;;;;;9.70;1.67;;;4.40;99.90;;;;;;5059057;28;20060;-85
2023/03/07 11:55:46;;;;;;;7.20;1.70;;;4.20;99.90;;;;;;5044294;28;20063;-86
2023/03/07 11:58:35;;;;;;;8.68;1.75;;;4.10;99.90;;;;;;5062090;28;20497;-88
2023/03/07 12:01:19;;;;;;;7.50;1.67;;;3.90;99.90;;;;;;5060987;28;20040;-84
2023/03/07 12:04:25;;;;;;;11.05;1.90;;;4.10;99.90;;;;;;5055324;28;20479;-83
2023/03/07 12:07:27;;;;;;;10.52;1.90;;;4.10;99.90;;;;;;5017842;28;20053;-82
2023/03/07 12:09:55;;;;;;;8.18;1.58;;;5.10;99.90;;;;;;5007614;28;20167;-84
2023/03/07 12:12:47;;;;;;;8.32;1.60;;;5.10;99.90;;;;;;5065163;28;20128;-82
2023/03/07 12:15:34;;;;;;;8.05;1.85;;;4.50;99.90;;;;;;5062596;28;20539;-83
2023/03/07 12:18:36;;;;;;;9.48;1.75;;;4.70;99.90;;;;;;5063090;28;20489;-84
2023/03/07 12:21:46;;;;;;;9.80;1.95;;;4.90;99.90;;;;;;5043648;28;20052;-83
2023/03/07 12:24:25;;;;;;;10.32;2.20;;;5.00;99.90;;;;;;5039058;28;20071;-84
2023/03/07 12:27:09;;;;;;;10.25;2.15;;;6.20;99.90;;;;;;5062121;28;20162;-85
2023/03/07 12:29:44;;;;;;;8.15;1.80;;;5.40;99.90;;;;;;5057308;28;20040;-85
2023/03/07 12:32:22;;;;;;;11.05;2.25;;;5.50;99.90;;;;;;5057937;28;20417;-84
2023/03/07 12:35:28;;;;;;;7.05;1.88;;;5.60;99.90;;;;;;5063516;28;20105;-90
2023/03/07 12:38:21;;;;;;;8.27;1.63;;;5.80;99.90;;;;;;5061483;28;20045;-84
2023/03/07 12:40:55;;;;;;;14.65;2.00;;;5.90;99.90;;;;;;5062090;28;20513;-84
2023/03/07 12:43:36;;;;;;;8.52;1.70;;;6.90;99.90;;;;;;5062299;28;20035;-83
2023/03/07 12:46:22;;;;;;;6.78;2.05;;;6.20;99.90;;;;;;5061405;28;20090;-86
2023/03/07 12:48:53;;;;;;;10.35;1.83;;;6.20;99.90;;;;;;5067466;28;20105;-84
2023/03/07 12:51:32;;;;;;;7.50;1.55;;;7.90;99.90;;;;;;5056714;28;20044;-85
2023/03/07 12:54:13;;;;;;;7.05;1.75;;;6.40;99.90;;;;;;5061819;28;20048;-88
2023/03/07 12:56:39;;;;;;;9.85;1.50;;;6.30;99.90;;;;;;5044141;28;20463;-86
2023/03/07 12:59:13;;;;;;;8.27;2.25;;;6.80;99.90;;;;;;5061250;28;20070;-84
2023/03/07 13:01:57;;;;;;;8.10;1.67;;;6.40;99.90;;;;;;5062539;28;20130;-83
2023/03/07 13:04:35;;;;;;;6.85;1.35;;;6.50;99.90;;;;;;5065953;28;20057;-85
2023/03/07 13:07:24;;;;;;;7.72;1.70;;;6.60;99.90;;;;;;5062946;28;20612;-86
2023/03/07 13:09:53;;;;;;;6.40;1.58;;;6.50;99.90;;;;;;5063835;28;20041;-84
2023/03/07 13:12:28;;;;;;;6.60;1.40;;;7.50;99.90;;;;;;5065710;28;20045;-84